Time;durP1;ratioP1;P1;durP2;ratioP2;P2;SDS_P1;SDS_P2;PMS_P1;PMS_P2;Temp;Humidity;BMP_temperature;BMP_pressure;BME280_temperature;BME280_humidity;BME280_pressure;Samples;Min_cycle;Max_cycle;Signal;HPM_P1;HPM_P2
2021/12/21 00:00:24;;;;;;;12.48;7.13;;;-1.90;99.90;;;;;;4960851;28;20119;-96
2021/12/21 00:02:52;;;;;;;15.93;8.88;;;-1.90;99.90;;;;;;4977392;28;20498;-96
2021/12/21 00:05:21;;;;;;;18.63;10.05;;;-1.90;99.90;;;;;;4960124;28;20392;-96
2021/12/21 00:07:50;;;;;;;19.17;9.52;;;-1.90;99.90;;;;;;4974834;28;20042;-96
2021/12/21 00:10:21;;;;;;;16.25;9.70;;;-1.90;99.90;;;;;;4978979;28;20120;-96
2021/12/21 00:15:34;;;;;;;17.33;9.63;;;-1.90;99.90;;;;;;4994006;28;20069;-96
2021/12/21 00:18:06;;;;;;;18.45;10.65;;;-2.00;99.90;;;;;;4978663;28;20415;-96
2021/12/21 00:20:47;;;;;;;20.00;11.68;;;-1.90;99.90;;;;;;4978383;28;20054;-96
2021/12/21 00:23:31;;;;;;;16.13;9.93;;;-1.90;99.90;;;;;;4994690;28;20042;-96
2021/12/21 00:25:58;;;;;;;21.98;10.82;;;-1.90;99.90;;;;;;4978797;28;20440;-96
2021/12/21 00:28:25;;;;;;;18.60;10.13;;;-2.00;99.90;;;;;;4962833;28;20038;-96
2021/12/21 00:30:51;;;;;;;20.98;10.30;;;-2.00;99.90;;;;;;4978818;28;20101;-96
2021/12/21 00:33:17;;;;;;;19.33;10.50;;;-2.00;99.90;;;;;;4960662;28;20048;-96
2021/12/21 00:35:43;;;;;;;16.33;10.02;;;-2.00;99.90;;;;;;4959261;28;20090;-96
2021/12/21 00:38:09;;;;;;;18.45;10.40;;;-2.00;99.90;;;;;;4975995;28;20049;-96
2021/12/21 00:40:35;;;;;;;18.98;11.18;;;-2.10;99.90;;;;;;4978181;28;20522;-96
2021/12/21 00:43:00;;;;;;;17.55;11.45;;;-2.10;99.90;;;;;;4967593;28;20050;-96
2021/12/21 00:45:26;;;;;;;15.60;8.73;;;-2.10;99.90;;;;;;4969831;28;20057;-96
2021/12/21 00:47:52;;;;;;;16.08;10.05;;;-2.10;99.90;;;;;;4989182;28;20038;-96
2021/12/21 00:50:19;;;;;;;23.15;11.55;;;-2.10;99.90;;;;;;4995130;28;20050;-96
2021/12/21 00:52:47;;;;;;;22.52;11.13;;;-2.10;99.90;;;;;;4978860;28;20041;-96
2021/12/21 00:55:13;;;;;;;21.00;11.50;;;-2.10;99.90;;;;;;4993933;28;20117;-96
2021/12/21 00:57:38;;;;;;;22.65;12.50;;;-2.10;99.90;;;;;;4979627;28;20311;-96
2021/12/21 01:00:05;;;;;;;19.48;11.38;;;-2.20;99.90;;;;;;4970540;28;20064;-96
2021/12/21 01:02:32;;;;;;;24.08;12.23;;;-2.10;99.90;;;;;;4972554;28;20046;-96
2021/12/21 01:04:58;;;;;;;29.05;16.25;;;-2.20;99.90;;;;;;4991781;28;20386;-96
2021/12/21 01:07:33;;;;;;;29.52;16.98;;;-2.10;99.90;;;;;;4968956;28;20041;-96
2021/12/21 01:10:29;;;;;;;30.98;18.02;;;-2.20;99.90;;;;;;4977455;28;20420;-96
2021/12/21 01:18:11;;;;;;;32.10;18.67;;;-2.20;99.90;;;;;;5022220;28;19905;-96
2021/12/21 01:20:46;;;;;;;27.40;15.07;;;-2.20;99.90;;;;;;5005198;28;20041;-96
2021/12/21 01:23:49;;;;;;;31.02;15.90;;;-2.20;99.90;;;;;;4994291;28;20034;-96
2021/12/21 01:26:29;;;;;;;27.65;15.27;;;-2.20;99.90;;;;;;4984670;28;20274;-96
2021/12/21 01:29:06;;;;;;;24.50;13.88;;;-2.20;99.90;;;;;;4963003;28;20050;-96
2021/12/21 01:34:21;;;;;;;35.20;17.30;;;-2.20;99.90;;;;;;4992564;28;20046;-95
2021/12/21 01:36:54;;;;;;;43.47;19.30;;;-2.20;99.90;;;;;;4982138;28;20053;-95
2021/12/21 01:51:59;;;;;;;;;;;-2.30;99.90;;;;;;4999657;28;20350;-95
2021/12/21 01:54:26;;;;;;;35.10;18.10;;;-2.30;99.90;;;;;;4979378;28;19921;-95
2021/12/21 01:56:53;;;;;;;30.20;16.27;;;-2.40;99.90;;;;;;4999173;28;20117;-95
2021/12/21 01:59:21;;;;;;;30.83;17.35;;;-2.40;99.90;;;;;;4968805;28;20046;-96
2021/12/21 02:01:47;;;;;;;32.08;18.20;;;-2.40;99.90;;;;;;4966343;28;20446;-95
2021/12/21 02:04:15;;;;;;;34.50;17.77;;;-2.40;99.90;;;;;;4990638;28;20046;-96
2021/12/21 02:06:41;;;;;;;36.78;17.25;;;-2.40;99.90;;;;;;4988680;28;20435;-95
2021/12/21 02:09:07;;;;;;;30.27;14.80;;;-2.40;99.90;;;;;;4978946;28;20038;-96
2021/12/21 02:11:33;;;;;;;28.35;14.48;;;-2.40;99.90;;;;;;4981346;28;20045;-95
2021/12/21 02:13:59;;;;;;;30.80;15.23;;;-2.40;99.90;;;;;;4984145;28;20490;-95
2021/12/21 02:16:40;;;;;;;27.92;14.32;;;-2.50;99.90;;;;;;4992514;28;20402;-96
2021/12/21 02:19:17;;;;;;;23.05;12.63;;;-2.40;99.90;;;;;;4974073;28;20410;-96
2021/12/21 02:21:50;;;;;;;29.00;14.23;;;-2.50;99.90;;;;;;4980126;28;20041;-96
2021/12/21 02:24:21;;;;;;;24.05;13.32;;;-2.50;99.90;;;;;;4983455;28;20060;-96
2021/12/21 02:29:53;;;;;;;23.10;12.43;;;-2.50;99.90;;;;;;4937407;29;20071;-96
2021/12/21 02:32:19;;;;;;;27.23;14.10;;;-2.50;99.90;;;;;;4917368;29;20512;-96
2021/12/21 02:34:45;;;;;;;26.30;13.95;;;-2.50;99.90;;;;;;4932419;29;20055;-96
2021/12/21 02:37:11;;;;;;;20.65;11.98;;;-2.50;99.90;;;;;;4913286;29;20051;-96
2021/12/21 02:39:37;;;;;;;24.92;12.80;;;-2.50;99.90;;;;;;4917335;29;20051;-96
2021/12/21 02:42:05;;;;;;;24.27;12.80;;;-2.50;99.90;;;;;;4930021;29;20056;-96
2021/12/21 02:44:31;;;;;;;24.08;11.93;;;-2.50;99.90;;;;;;4909187;29;20052;-95
2021/12/21 02:46:57;;;;;;;21.15;11.00;;;-2.60;99.90;;;;;;4925235;29;20146;-96
2021/12/21 02:49:25;;;;;;;20.45;10.02;;;-2.60;99.90;;;;;;4951551;29;20460;-96
2021/12/21 02:51:52;;;;;;;20.20;10.75;;;-2.60;99.90;;;;;;4930516;29;20035;-96
2021/12/21 02:54:19;;;;;;;19.40;9.85;;;-2.60;99.90;;;;;;4906820;29;20052;-96
2021/12/21 02:56:46;;;;;;;18.95;9.38;;;-2.60;99.90;;;;;;4905776;29;20082;-96
2021/12/21 02:59:11;;;;;;;17.05;8.55;;;-2.60;99.90;;;;;;4937369;29;20555;-96
2021/12/21 03:01:38;;;;;;;17.58;8.88;;;-2.60;99.90;;;;;;4972479;28;20049;-95
2021/12/21 03:04:04;;;;;;;17.02;9.18;;;-2.60;99.90;;;;;;4978955;28;20049;-96
2021/12/21 03:07:19;;;;;;;19.52;8.40;;;-2.60;99.90;;;;;;4994235;28;20426;-96
2021/12/21 03:09:37;;;;;;;15.65;7.40;;;-2.60;99.90;;;;;;4980560;28;20046;-96
2021/12/21 03:12:27;;;;;;;14.20;7.28;;;-2.60;99.90;;;;;;4986354;28;20050;-96
2021/12/21 03:14:52;;;;;;;13.93;6.83;;;-2.70;99.90;;;;;;4969552;28;20043;-95
2021/12/21 03:17:19;;;;;;;11.70;5.40;;;-2.70;99.90;;;;;;4986519;28;20045;-96
2021/12/21 03:19:45;;;;;;;15.40;7.15;;;-2.70;99.90;;;;;;4973604;28;20042;-96
2021/12/21 03:22:11;;;;;;;12.40;6.32;;;-2.70;99.90;;;;;;4972878;28;20497;-95
2021/12/21 03:24:38;;;;;;;11.85;5.70;;;-2.70;99.90;;;;;;4984890;28;20128;-96
2021/12/21 03:27:05;;;;;;;14.05;6.90;;;-2.80;99.90;;;;;;4997957;28;20034;-96
2021/12/21 03:29:31;;;;;;;13.93;7.03;;;-2.70;99.90;;;;;;4985936;28;20053;-96
2021/12/21 03:31:58;;;;;;;13.95;7.22;;;-2.80;99.90;;;;;;4988450;28;20029;-96
2021/12/21 03:34:24;;;;;;;13.93;6.63;;;-2.80;99.90;;;;;;4986820;28;20049;-96
2021/12/21 03:36:50;;;;;;;13.70;6.43;;;-2.80;99.90;;;;;;4987191;28;20063;-96
2021/12/21 03:39:18;;;;;;;11.07;6.50;;;-2.80;99.90;;;;;;4991077;28;20046;-96
2021/12/21 03:41:51;;;;;;;15.05;6.70;;;-2.80;99.90;;;;;;5002216;28;20054;-96
2021/12/21 03:44:18;;;;;;;12.40;6.63;;;-2.70;99.90;;;;;;4980068;28;20041;-96
2021/12/21 03:46:48;;;;;;;12.10;6.88;;;-2.80;99.90;;;;;;4975795;28;20076;-96
2021/12/21 03:49:52;;;;;;;13.63;7.45;;;-2.80;99.90;;;;;;4987420;28;20044;-96
2021/12/21 03:52:19;;;;;;;13.52;7.10;;;-2.80;99.90;;;;;;4990668;28;20053;-96
2021/12/21 03:54:51;;;;;;;14.65;7.55;;;-2.80;99.90;;;;;;4988300;28;20042;-96
2021/12/21 03:57:17;;;;;;;17.58;7.82;;;-2.80;99.90;;;;;;4985849;28;20045;-96
2021/12/21 03:59:45;;;;;;;14.27;7.35;;;-2.80;99.90;;;;;;5018858;28;20038;-96
2021/12/21 04:02:12;;;;;;;13.32;7.00;;;-2.90;99.90;;;;;;5018173;28;20034;-96
2021/12/21 04:04:39;;;;;;;13.15;6.63;;;-2.80;99.90;;;;;;5003739;28;20347;-96
2021/12/21 04:07:05;;;;;;;12.00;7.00;;;-2.80;99.90;;;;;;5002546;28;20049;-96
2021/12/21 04:09:31;;;;;;;13.20;6.47;;;-2.90;99.90;;;;;;4986278;28;20037;-96
2021/12/21 04:11:57;;;;;;;14.68;7.43;;;-2.90;99.90;;;;;;4975992;28;20058;-96
2021/12/21 04:14:23;;;;;;;14.57;7.57;;;-2.90;99.90;;;;;;4976290;28;20050;-96
2021/12/21 04:16:49;;;;;;;14.77;7.75;;;-2.90;99.90;;;;;;4992733;28;20077;-96
2021/12/21 04:19:17;;;;;;;16.98;8.40;;;-2.90;99.90;;;;;;4989732;28;20089;-96
2021/12/21 04:21:42;;;;;;;15.20;8.32;;;-3.00;99.90;;;;;;4995714;28;20092;-96
2021/12/21 04:24:08;;;;;;;13.25;7.65;;;-2.80;99.90;;;;;;5011930;28;20042;-96
2021/12/21 04:26:34;;;;;;;13.95;8.02;;;-2.90;99.90;;;;;;4995309;28;20116;-96
2021/12/21 04:29:01;;;;;;;13.15;7.03;;;-2.90;99.90;;;;;;4996346;28;20046;-96
2021/12/21 04:31:27;;;;;;;13.88;7.32;;;-2.90;99.90;;;;;;5007977;28;20053;-96
2021/12/21 04:33:53;;;;;;;15.30;8.00;;;-2.90;99.90;;;;;;4995491;28;20046;-96
2021/12/21 04:36:19;;;;;;;16.52;9.15;;;-2.90;99.90;;;;;;4998512;28;20045;-96
2021/12/21 04:38:48;;;;;;;16.88;8.65;;;-2.80;99.90;;;;;;4999144;28;20041;-96
2021/12/21 04:41:22;;;;;;;15.30;8.52;;;-3.00;99.90;;;;;;4997739;28;20048;-96
2021/12/21 04:43:48;;;;;;;16.10;8.85;;;-3.00;99.90;;;;;;5001449;28;20054;-95
2021/12/21 04:46:13;;;;;;;15.48;9.25;;;-3.00;99.90;;;;;;4993199;28;20050;-96
2021/12/21 04:48:39;;;;;;;18.75;10.00;;;-3.00;99.90;;;;;;4992494;28;20053;-96
2021/12/21 04:51:06;;;;;;;16.92;9.70;;;-3.00;99.90;;;;;;4999049;28;20062;-96
2021/12/21 04:53:32;;;;;;;15.93;9.85;;;-3.00;99.90;;;;;;4999205;28;20038;-96
2021/12/21 04:55:58;;;;;;;19.38;10.93;;;-3.00;99.90;;;;;;4999896;28;20026;-96
2021/12/21 04:58:26;;;;;;;18.30;10.85;;;-3.00;99.90;;;;;;5000867;28;20097;-96
2021/12/21 05:00:52;;;;;;;21.20;12.18;;;-3.00;99.90;;;;;;5000383;28;20058;-96
2021/12/21 05:03:21;;;;;;;23.08;13.35;;;-3.00;99.90;;;;;;5000276;28;20081;-96
2021/12/21 05:05:47;;;;;;;22.92;12.85;;;-3.00;99.90;;;;;;5015796;28;20041;-96
2021/12/21 05:08:23;;;;;;;21.30;12.40;;;-3.00;99.90;;;;;;4993238;28;20111;-96
2021/12/21 05:10:53;;;;;;;20.85;12.93;;;-3.00;99.90;;;;;;4995158;28;20034;-96
2021/12/21 05:13:22;;;;;;;23.77;13.38;;;-3.10;99.90;;;;;;5005073;28;20049;-96
2021/12/21 05:15:48;;;;;;;20.60;12.48;;;-3.00;99.90;;;;;;4983656;28;20106;-96
2021/12/21 05:18:15;;;;;;;22.88;12.35;;;-3.00;99.90;;;;;;5013774;28;20050;-96
2021/12/21 05:20:42;;;;;;;21.63;12.05;;;-3.00;99.90;;;;;;5000385;28;20073;-96
2021/12/21 05:23:09;;;;;;;21.45;11.35;;;-3.10;99.90;;;;;;5010948;28;20081;-96
2021/12/21 05:25:39;;;;;;;19.98;11.73;;;-3.10;99.90;;;;;;4980971;28;20046;-96
2021/12/21 05:28:07;;;;;;;21.08;11.73;;;-3.10;99.90;;;;;;4987129;28;20041;-96
2021/12/21 05:30:35;;;;;;;24.63;12.88;;;-3.10;99.90;;;;;;5000240;28;20056;-96
2021/12/21 05:33:02;;;;;;;22.73;11.85;;;-3.10;99.90;;;;;;5000329;28;20040;-96
2021/12/21 05:35:28;;;;;;;21.35;12.85;;;-3.10;99.90;;;;;;5001951;28;20044;-96
2021/12/21 05:37:59;;;;;;;21.10;11.77;;;-3.10;99.90;;;;;;5001230;28;20054;-96
2021/12/21 05:40:33;;;;;;;18.27;11.68;;;-3.10;99.90;;;;;;5002143;28;20050;-96
2021/12/21 05:42:59;;;;;;;19.63;11.77;;;-3.10;99.90;;;;;;5018474;28;20109;-96
2021/12/21 05:45:25;;;;;;;20.05;11.25;;;-3.20;99.90;;;;;;5002092;28;20030;-96
2021/12/21 05:47:54;;;;;;;18.92;12.00;;;-3.10;99.90;;;;;;4997592;28;20022;-96
2021/12/21 05:50:20;;;;;;;19.88;10.93;;;-3.20;99.90;;;;;;5004098;28;20037;-96
2021/12/21 05:52:48;;;;;;;19.70;11.88;;;-3.20;99.90;;;;;;5003868;28;20018;-95
2021/12/21 05:55:15;;;;;;;20.98;11.75;;;-3.20;99.90;;;;;;5019610;28;20056;-96
2021/12/21 05:57:41;;;;;;;16.90;10.63;;;-3.20;99.90;;;;;;5018696;28;20109;-96
2021/12/21 06:00:13;;;;;;;18.67;10.70;;;-3.20;99.90;;;;;;5003692;28;20101;-96
2021/12/21 06:02:40;;;;;;;16.13;10.13;;;-3.20;99.90;;;;;;5017600;28;20132;-96
2021/12/21 06:05:07;;;;;;;17.02;10.65;;;-3.20;99.90;;;;;;5002878;28;20068;-96
2021/12/21 06:07:33;;;;;;;18.70;11.05;;;-3.20;99.90;;;;;;4985958;28;20057;-96
2021/12/21 06:10:10;;;;;;;18.00;10.10;;;-3.20;99.90;;;;;;5002607;28;20041;-96
2021/12/21 06:15:19;;;;;;;16.38;10.40;;;-3.20;99.90;;;;;;5002181;28;20054;-96
2021/12/21 06:25:59;;;;;;;16.60;8.52;;;-3.20;99.90;;;;;;4988226;28;20053;-95
2021/12/21 06:28:26;;;;;;;16.42;8.02;;;-3.30;99.90;;;;;;4997264;28;20219;-93
2021/12/21 06:30:52;;;;;;;16.00;8.30;;;-3.30;99.90;;;;;;4991868;28;20038;-94
2021/12/21 06:33:18;;;;;;;17.10;9.52;;;-3.30;99.90;;;;;;4980297;28;20064;-96
2021/12/21 06:35:44;;;;;;;16.42;11.00;;;-3.30;99.90;;;;;;4996451;28;20038;-96
2021/12/21 06:38:10;;;;;;;18.42;11.02;;;-3.30;99.90;;;;;;4982730;28;20038;-95
2021/12/21 06:40:37;;;;;;;18.48;12.00;;;-3.30;99.90;;;;;;4979140;28;20042;-94
2021/12/21 06:43:03;;;;;;;18.98;11.13;;;-3.30;99.90;;;;;;4971959;28;20084;-94
2021/12/21 06:45:44;;;;;;;17.17;10.55;;;-3.40;99.90;;;;;;4981120;28;20034;-95
2021/12/21 06:53:54;;;;;;;18.42;10.32;;;-3.40;99.90;;;;;;4969278;28;20053;-95
2021/12/21 06:56:20;;;;;;;17.13;10.13;;;-3.40;99.90;;;;;;4981114;28;20046;-95
2021/12/21 06:58:47;;;;;;;14.60;9.55;;;-3.40;99.90;;;;;;4980909;28;20116;-95
2021/12/21 07:01:13;;;;;;;17.80;9.93;;;-3.40;99.90;;;;;;4980845;28;20129;-96
2021/12/21 07:03:41;;;;;;;18.17;9.48;;;-3.40;99.90;;;;;;4978803;28;20085;-96
2021/12/21 07:06:07;;;;;;;16.60;9.82;;;-3.40;99.90;;;;;;4964503;28;20042;-95
2021/12/21 07:08:43;;;;;;;15.75;8.98;;;-3.40;99.90;;;;;;4972195;28;20038;-95
2021/12/21 07:11:23;;;;;;;15.65;8.45;;;-3.40;99.90;;;;;;4962609;28;20057;-96
2021/12/21 07:19:18;;;;;;;15.00;8.52;;;-3.50;99.90;;;;;;5000381;28;20057;-96
2021/12/21 07:21:43;;;;;;;18.33;9.25;;;-3.50;99.90;;;;;;5006218;28;20042;-96
2021/12/21 07:24:09;;;;;;;15.93;8.20;;;-3.50;99.90;;;;;;5004613;28;20028;-96
2021/12/21 07:26:38;;;;;;;16.63;9.27;;;-3.50;99.90;;;;;;5002708;28;20054;-95
2021/12/21 07:29:05;;;;;;;19.50;9.35;;;-3.50;99.90;;;;;;4979997;28;20066;-96
2021/12/21 07:31:30;;;;;;;18.33;9.35;;;-3.40;99.90;;;;;;4982465;28;20045;-95
2021/12/21 07:33:58;;;;;;;14.52;8.68;;;-3.50;99.90;;;;;;4995800;28;20040;-96
2021/12/21 07:36:24;;;;;;;14.52;8.82;;;-3.40;99.90;;;;;;5030877;23;20085;-95
2021/12/21 07:38:50;;;;;;;17.05;8.73;;;-3.40;99.90;;;;;;5025693;28;20045;-96
2021/12/21 07:41:16;;;;;;;15.05;9.38;;;-3.40;99.90;;;;;;5306930;23;20042;-96
2021/12/21 07:46:31;;;;;;;15.05;8.50;;;-3.50;99.90;;;;;;5064291;23;20082;-96
2021/12/21 07:48:58;;;;;;;15.50;9.13;;;-3.50;99.90;;;;;;4988121;28;20041;-96
2021/12/21 07:51:24;;;;;;;14.45;9.43;;;-3.40;99.90;;;;;;4997573;28;20316;-96
2021/12/21 08:06:40;;;;;;;15.73;8.88;;;-3.40;99.90;;;;;;4993695;28;20081;-96
2021/12/21 08:09:06;;;;;;;16.23;8.13;;;-3.40;99.90;;;;;;5176363;23;20036;-95
2021/12/21 08:14:07;;;;;;;14.27;8.30;;;-3.40;99.90;;;;;;4988962;28;20058;-96
2021/12/21 08:19:10;;;;;;;13.38;8.38;;;-3.30;99.90;;;;;;4999035;28;20046;-96
2021/12/21 08:21:36;;;;;;;14.77;8.68;;;-3.30;99.90;;;;;;4966759;28;20050;-96
2021/12/21 08:24:02;;;;;;;15.13;9.18;;;-3.30;99.90;;;;;;4989177;28;20057;-96
2021/12/21 08:26:27;;;;;;;15.57;9.70;;;-3.30;99.90;;;;;;4993612;28;20049;-96
2021/12/21 08:29:22;;;;;;;16.02;8.77;;;-3.30;99.90;;;;;;4978442;28;20026;-96
2021/12/21 08:31:49;;;;;;;17.23;9.73;;;-3.20;99.90;;;;;;5382791;23;20037;-96
2021/12/21 08:40:11;;;;;;;16.05;9.00;;;-3.10;99.90;;;;;;5511815;23;20033;31
2021/12/21 08:59:57;;;;;;;14.60;8.98;;;-2.70;99.90;;;;;;3902586;22;20296;-95
2021/12/21 09:02:29;;;;;;;17.50;8.93;;;-2.70;99.90;;;;;;4954919;28;20063;-96
2021/12/21 09:04:55;;;;;;;14.13;7.82;;;-2.70;99.90;;;;;;4967590;29;20046;-96
2021/12/21 09:07:21;;;;;;;14.88;8.38;;;-2.60;99.90;;;;;;4967558;28;20042;-96
2021/12/21 09:09:47;;;;;;;13.38;8.52;;;-2.50;99.90;;;;;;4956850;28;20074;-96
2021/12/21 09:12:13;;;;;;;13.63;8.45;;;-2.60;99.90;;;;;;4967675;28;20039;-96
2021/12/21 09:14:40;;;;;;;14.23;9.55;;;-2.50;99.90;;;;;;4972478;28;20057;-96
2021/12/21 09:17:14;;;;;;;17.13;10.15;;;-2.50;99.90;;;;;;5044934;23;20088;-96
2021/12/21 09:19:40;;;;;;;14.10;9.27;;;-2.40;99.90;;;;;;4992038;28;20566;-96
2021/12/21 09:22:05;;;;;;;14.50;9.35;;;-2.40;99.90;;;;;;4977774;28;20045;-96
2021/12/21 09:24:31;;;;;;;18.20;10.40;;;-2.30;99.90;;;;;;4984374;28;20026;-96
2021/12/21 09:26:57;;;;;;;16.02;11.15;;;-2.30;99.90;;;;;;5017759;28;20089;-96
2021/12/21 09:29:27;;;;;;;17.95;11.98;;;-2.20;99.90;;;;;;5014896;28;20048;-96
2021/12/21 09:31:52;;;;;;;20.70;14.35;;;-2.20;99.90;;;;;;5139008;23;20051;-96
2021/12/21 09:39:29;;;;;;;21.15;15.40;;;-2.00;99.90;;;;;;5032572;26;20073;-96
2021/12/21 09:41:55;;;;;;;26.55;16.15;;;-2.00;99.90;;;;;;5007036;28;20081;-96
2021/12/21 09:44:35;;;;;;;30.60;19.58;;;-1.90;99.90;;;;;;5005082;28;20049;-96
2021/12/21 09:47:02;;;;;;;32.22;22.27;;;-1.80;99.90;;;;;;4999019;28;20092;-96
2021/12/21 09:49:27;;;;;;;29.38;20.73;;;-1.80;99.90;;;;;;4990814;28;20109;-96
2021/12/21 09:51:53;;;;;;;32.63;22.40;;;-1.70;99.90;;;;;;4985126;28;20081;-96
2021/12/21 09:54:19;;;;;;;29.20;20.05;;;-1.60;99.90;;;;;;5125544;23;20120;-96
2021/12/21 09:56:45;;;;;;;32.92;21.70;;;-1.50;99.90;;;;;;4985737;28;20056;-95
2021/12/21 09:59:19;;;;;;;35.75;24.65;;;-1.40;99.90;;;;;;4959719;28;20094;-95
2021/12/21 10:01:45;;;;;;;31.02;23.08;;;-1.30;99.90;;;;;;4960130;28;20042;-96
2021/12/21 10:04:11;;;;;;;39.63;27.15;;;-1.30;99.90;;;;;;4967718;28;20042;-95
2021/12/21 10:06:49;;;;;;;36.70;25.60;;;-1.30;99.90;;;;;;4962823;28;20043;-94
2021/12/21 10:09:15;;;;;;;46.03;30.63;;;-1.20;99.90;;;;;;4982559;28;20050;-96
2021/12/21 10:11:44;;;;;;;42.40;28.77;;;-1.00;99.90;;;;;;5161995;22;20389;-95
2021/12/21 10:14:22;;;;;;;43.97;29.00;;;-0.90;99.90;;;;;;4985101;28;20073;-95
2021/12/21 10:16:58;;;;;;;47.97;31.65;;;-0.80;99.90;;;;;;5241075;23;20077;-96
2021/12/21 10:19:24;;;;;;;35.25;24.30;;;-0.60;99.90;;;;;;4980323;28;20046;-96
2021/12/21 10:21:50;;;;;;;40.28;27.88;;;-0.60;99.90;;;;;;4983598;28;20042;-96
2021/12/21 10:24:28;;;;;;;42.00;27.63;;;-0.60;99.90;;;;;;4965911;28;20038;-96
2021/12/21 10:27:07;;;;;;;41.10;28.80;;;-0.50;99.90;;;;;;4980958;28;20069;-96
2021/12/21 10:29:56;;;;;;;44.25;30.15;;;-0.40;99.90;;;;;;4980695;28;20054;-96
2021/12/21 10:32:26;;;;;;;36.10;26.05;;;-0.30;99.90;;;;;;4962648;28;20042;-96
2021/12/21 10:34:54;;;;;;;35.55;25.40;;;-0.30;99.90;;;;;;4962378;28;20049;-96
2021/12/21 10:37:29;;;;;;;43.38;27.38;;;-0.20;99.90;;;;;;4963732;28;20046;-96
2021/12/21 10:40:24;;;;;;;32.85;23.85;;;-0.20;99.90;;;;;;4961692;28;20045;-96
2021/12/21 10:43:09;;;;;;;41.50;28.27;;;-0.10;99.90;;;;;;4962291;28;20053;-95
2021/12/21 10:45:34;;;;;;;36.33;24.35;;;0.00;99.90;;;;;;4960684;28;20046;-96
2021/12/21 10:48:03;;;;;;;40.30;25.35;;;0.00;99.90;;;;;;4960363;28;20088;-95
2021/12/21 10:50:32;;;;;;;32.45;25.05;;;0.10;99.90;;;;;;4960946;28;20073;-96
2021/12/21 10:52:58;;;;;;;36.75;25.27;;;0.10;99.90;;;;;;4977512;28;20069;-95
2021/12/21 10:55:38;;;;;;;35.80;26.50;;;0.10;99.90;;;;;;4959876;28;20487;-96
2021/12/21 10:58:19;;;;;;;33.10;23.27;;;0.20;99.90;;;;;;4961006;28;20487;-95
2021/12/21 11:00:55;;;;;;;33.58;24.02;;;0.20;99.90;;;;;;4960457;28;20073;-95
2021/12/21 11:03:37;;;;;;;32.55;23.75;;;0.30;99.90;;;;;;4960331;28;20049;-94
2021/12/21 11:06:12;;;;;;;33.63;22.95;;;0.30;99.90;;;;;;4961276;28;20441;-94
2021/12/21 11:08:40;;;;;;;34.97;23.63;;;0.40;99.90;;;;;;4959536;28;20042;-95
2021/12/21 11:11:10;;;;;;;32.85;23.35;;;0.40;99.90;;;;;;4960701;28;20046;-94
2021/12/21 11:13:42;;;;;;;30.13;21.63;;;0.40;99.90;;;;;;4961915;28;20431;-96
2021/12/21 11:16:08;;;;;;;32.63;20.17;;;0.50;99.90;;;;;;4960529;28;20042;-95
2021/12/21 11:18:37;;;;;;;32.97;21.70;;;0.50;99.90;;;;;;4959823;28;20050;-95
2021/12/21 11:21:06;;;;;;;29.20;21.08;;;0.60;99.90;;;;;;4960211;28;20073;-94
2021/12/21 11:23:33;;;;;;;32.85;22.85;;;0.70;99.90;;;;;;4959468;28;20042;-95
2021/12/21 11:26:00;;;;;;;29.30;20.85;;;0.80;99.90;;;;;;4960273;28;20053;-94
2021/12/21 11:28:44;;;;;;;30.70;21.27;;;0.90;99.90;;;;;;4959223;28;20152;-94
2021/12/21 11:31:10;;;;;;;33.42;21.42;;;0.90;99.90;;;;;;4959823;28;20158;-93
2021/12/21 11:33:42;;;;;;;31.35;21.45;;;0.90;99.90;;;;;;4959468;28;20399;-96
2021/12/21 11:38:53;;;;;;;29.98;22.23;;;1.00;99.90;;;;;;4975791;28;20046;-93
2021/12/21 11:41:20;;;;;;;34.03;22.48;;;1.10;99.90;;;;;;4959922;28;20042;-93
2021/12/21 11:44:12;;;;;;;33.03;23.92;;;1.10;99.90;;;;;;4959579;28;20399;-93
2021/12/21 11:46:54;;;;;;;32.63;24.05;;;1.20;99.90;;;;;;4958779;28;20052;-94
2021/12/21 11:49:40;;;;;;;33.55;22.35;;;1.30;99.90;;;;;;4959454;28;20049;-93
2021/12/21 11:52:09;;;;;;;29.50;21.30;;;1.30;99.90;;;;;;4959415;28;20053;-93
2021/12/21 11:54:49;;;;;;;28.75;21.15;;;1.30;99.90;;;;;;4958551;28;20069;-92
2021/12/21 11:57:18;;;;;;;31.10;22.45;;;1.40;99.90;;;;;;4959779;28;20042;-92
2021/12/21 12:00:12;;;;;;;31.83;23.00;;;1.40;99.90;;;;;;4958425;28;20046;-91
2021/12/21 12:02:38;;;;;;;31.63;21.92;;;1.40;99.90;;;;;;4958167;28;20049;-92
2021/12/21 12:05:13;;;;;;;29.02;22.48;;;1.50;99.90;;;;;;4959227;28;20042;-93
2021/12/21 12:07:39;;;;;;;31.30;22.65;;;1.50;99.90;;;;;;4958556;28;20042;-93
2021/12/21 12:10:13;;;;;;;29.17;22.10;;;1.50;99.90;;;;;;4975459;28;20525;-92
2021/12/21 12:12:39;;;;;;;31.85;20.52;;;1.60;99.90;;;;;;4974720;28;20046;-93
2021/12/21 12:15:15;;;;;;;28.20;20.67;;;1.60;99.90;;;;;;4969810;28;20052;-92
2021/12/21 12:17:49;;;;;;;27.02;20.48;;;1.70;99.90;;;;;;4954814;28;20058;-93
2021/12/21 12:20:16;;;;;;;26.13;19.23;;;1.80;99.90;;;;;;4955455;28;20051;-92
2021/12/21 12:22:44;;;;;;;26.80;19.30;;;1.80;99.90;;;;;;4954893;28;20042;-93
2021/12/21 12:25:22;;;;;;;27.67;19.92;;;1.90;99.90;;;;;;4956554;28;20553;-93
2021/12/21 12:27:51;;;;;;;29.83;20.48;;;1.90;99.90;;;;;;4972290;28;20114;-93
2021/12/21 12:30:25;;;;;;;27.80;19.70;;;2.00;99.90;;;;;;4955515;28;20060;-92
2021/12/21 12:33:06;;;;;;;27.85;21.83;;;2.00;99.90;;;;;;4957604;28;20042;-95
2021/12/21 12:35:37;;;;;;;28.85;20.40;;;2.00;99.90;;;;;;4968265;28;20050;-96
2021/12/21 12:38:15;;;;;;;30.40;21.15;;;2.00;99.90;;;;;;4968741;28;20097;-92
2021/12/21 12:40:44;;;;;;;26.98;19.40;;;2.00;99.90;;;;;;4956891;28;20046;-92
2021/12/21 12:43:15;;;;;;;29.23;19.70;;;2.00;99.90;;;;;;4966764;28;20054;-93
2021/12/21 12:45:51;;;;;;;28.55;19.35;;;2.10;99.90;;;;;;4972704;28;20097;-92
2021/12/21 12:48:19;;;;;;;27.80;19.67;;;2.10;99.90;;;;;;4953980;28;20060;-92
2021/12/21 12:50:45;;;;;;;26.60;19.38;;;2.10;99.90;;;;;;4958196;28;20057;-93
2021/12/21 12:53:11;;;;;;;26.63;20.33;;;2.20;99.90;;;;;;4955557;28;20129;-93
2021/12/21 12:55:42;;;;;;;26.08;19.92;;;2.30;99.90;;;;;;4954362;28;20408;-92
2021/12/21 12:58:20;;;;;;;27.83;19.95;;;2.30;99.90;;;;;;4977732;28;20049;-91
2021/12/21 13:01:01;;;;;;;28.67;19.98;;;2.40;99.90;;;;;;4958120;28;20039;-91
2021/12/21 13:03:36;;;;;;;;;;;2.40;99.90;;;;;;4953192;28;20053;-93
2021/12/21 13:06:12;;;;;;;29.58;20.10;;;2.40;99.90;;;;;;4975001;28;19936;-92
2021/12/21 13:08:39;;;;;;;30.55;21.25;;;2.40;99.90;;;;;;4953654;28;20030;-93
2021/12/21 13:11:05;;;;;;;26.45;19.58;;;2.40;99.90;;;;;;4958231;28;20042;-93
2021/12/21 13:13:39;;;;;;;28.70;21.10;;;2.40;99.90;;;;;;4955867;28;20114;-93
2021/12/21 13:16:07;;;;;;;25.80;19.45;;;2.40;99.90;;;;;;4962514;28;20046;-91
2021/12/21 13:18:42;;;;;;;27.40;19.33;;;2.40;99.90;;;;;;4957062;28;20443;-91
2021/12/21 13:21:28;;;;;;;26.00;18.25;;;2.40;99.90;;;;;;4958478;28;20053;-92
2021/12/21 13:24:12;;;;;;;25.30;19.77;;;2.50;99.90;;;;;;4960733;28;20059;-92
2021/12/21 13:26:55;;;;;;;27.77;19.60;;;2.50;99.90;;;;;;4982589;28;20473;-91
2021/12/21 13:29:30;;;;;;;25.95;18.65;;;2.50;99.90;;;;;;4985262;28;20042;-92
2021/12/21 13:31:58;;;;;;;25.77;19.15;;;2.50;99.90;;;;;;4957927;28;20050;-91
2021/12/21 13:34:26;;;;;;;28.30;19.48;;;2.50;99.90;;;;;;4957216;28;20039;-91
2021/12/21 13:36:54;;;;;;;26.88;19.80;;;2.50;99.90;;;;;;4983429;28;20078;-91
2021/12/21 13:39:34;;;;;;;29.70;20.02;;;2.50;99.90;;;;;;4958839;28;20165;-92
2021/12/21 13:42:06;;;;;;;25.98;19.83;;;2.50;99.90;;;;;;4957127;28;20042;-91
2021/12/21 13:44:36;;;;;;;25.65;20.63;;;2.50;99.90;;;;;;4976810;28;20058;-90
2021/12/21 13:47:26;;;;;;;29.05;22.17;;;2.50;99.90;;;;;;4974683;28;20049;-91
2021/12/21 13:50:11;;;;;;;27.50;20.67;;;2.40;99.90;;;;;;4981206;28;20039;-91
2021/12/21 13:52:43;;;;;;;26.85;20.52;;;2.40;99.90;;;;;;4961301;28;20046;-91
2021/12/21 13:55:23;;;;;;;26.77;20.67;;;2.40;99.90;;;;;;4957002;28;20046;-91
2021/12/21 13:57:50;;;;;;;27.40;21.40;;;2.40;99.90;;;;;;4970228;28;20054;-91
2021/12/21 14:00:16;;;;;;;27.10;20.85;;;2.40;99.90;;;;;;4958346;28;20060;-91
2021/12/21 14:02:50;;;;;;;29.27;21.52;;;2.40;99.90;;;;;;4955476;28;20046;-91
2021/12/21 14:05:18;;;;;;;29.73;22.63;;;2.40;99.90;;;;;;4961167;28;20129;-90
2021/12/21 14:07:49;;;;;;;29.15;23.05;;;2.40;99.90;;;;;;4959637;28;20038;-91
2021/12/21 14:10:18;;;;;;;27.63;20.77;;;2.40;99.90;;;;;;4975877;28;20405;-90
2021/12/21 14:12:55;;;;;;;30.45;23.15;;;2.30;99.90;;;;;;4955661;28;20046;-90
2021/12/21 14:15:21;;;;;;;31.65;24.00;;;2.30;99.90;;;;;;4956558;28;20137;-89
2021/12/21 14:17:47;;;;;;;32.00;23.77;;;2.30;99.90;;;;;;4954198;28;20503;-89
2021/12/21 14:20:18;;;;;;;29.05;22.88;;;2.30;99.90;;;;;;4957337;28;20048;-91
2021/12/21 14:22:44;;;;;;;31.27;22.77;;;2.30;99.90;;;;;;4960239;28;20062;-90
2021/12/21 14:25:20;;;;;;;28.92;22.83;;;2.20;99.90;;;;;;4958428;28;20080;-90
2021/12/21 14:27:46;;;;;;;33.20;24.30;;;2.20;99.90;;;;;;4957486;28;20046;-90